sensor_id;sensor_type;location;lat;lon;timestamp;P1;durP1;ratioP1;P2;durP2;ratioP2
32826;SDS011;51059;42.058;27.986;2023-08-30T00:00:54;11.23;;;9.80;;
32826;SDS011;51059;42.058;27.986;2023-08-30T00:03:20;11.73;;;9.98;;
32826;SDS011;51059;42.058;27.986;2023-08-30T00:05:46;11.05;;;10.05;;
32826;SDS011;51059;42.058;27.986;2023-08-30T00:08:12;11.98;;;10.85;;
32826;SDS011;51059;42.058;27.986;2023-08-30T00:10:47;15.20;;;10.53;;
32826;SDS011;51059;42.058;27.986;2023-08-30T00:13:13;13.48;;;10.50;;
32826;SDS011;51059;42.058;27.986;2023-08-30T00:15:39;10.98;;;9.88;;
32826;SDS011;51059;42.058;27.986;2023-08-30T00:18:05;18.63;;;10.63;;
32826;SDS011;51059;42.058;27.986;2023-08-30T00:20:31;14.05;;;9.93;;
32826;SDS011;51059;42.058;27.986;2023-08-30T00:22:57;12.25;;;10.25;;
32826;SDS011;51059;42.058;27.986;2023-08-30T00:25:23;11.65;;;10.18;;
32826;SDS011;51059;42.058;27.986;2023-08-30T00:27:49;12.27;;;10.50;;
32826;SDS011;51059;42.058;27.986;2023-08-30T00:30:16;10.68;;;9.68;;
32826;SDS011;51059;42.058;27.986;2023-08-30T00:32:42;11.38;;;10.27;;
32826;SDS011;51059;42.058;27.986;2023-08-30T00:35:08;12.77;;;10.32;;
32826;SDS011;51059;42.058;27.986;2023-08-30T00:37:34;12.82;;;10.52;;
32826;SDS011;51059;42.058;27.986;2023-08-30T00:39:59;16.25;;;10.27;;
32826;SDS011;51059;42.058;27.986;2023-08-30T00:42:25;12.32;;;9.77;;
32826;SDS011;51059;42.058;27.986;2023-08-30T00:44:52;11.80;;;10.60;;
32826;SDS011;51059;42.058;27.986;2023-08-30T00:47:18;12.55;;;9.98;;
32826;SDS011;51059;42.058;27.986;2023-08-30T00:49:46;11.63;;;10.57;;
32826;SDS011;51059;42.058;27.986;2023-08-30T00:52:12;11.53;;;10.33;;
32826;SDS011;51059;42.058;27.986;2023-08-30T00:54:38;15.07;;;10.10;;
32826;SDS011;51059;42.058;27.986;2023-08-30T00:57:04;11.50;;;10.30;;
32826;SDS011;51059;42.058;27.986;2023-08-30T00:59:33;10.95;;;9.85;;
32826;SDS011;51059;42.058;27.986;2023-08-30T01:01:59;11.40;;;9.75;;
32826;SDS011;51059;42.058;27.986;2023-08-30T01:04:28;11.52;;;10.32;;
32826;SDS011;51059;42.058;27.986;2023-08-30T01:06:54;11.43;;;10.15;;
32826;SDS011;51059;42.058;27.986;2023-08-30T01:09:20;13.05;;;10.13;;
32826;SDS011;51059;42.058;27.986;2023-08-30T01:12:00;12.32;;;10.20;;
32826;SDS011;51059;42.058;27.986;2023-08-30T01:17:29;15.77;;;10.73;;
32826;SDS011;51059;42.058;27.986;2023-08-30T01:20:01;15.30;;;10.70;;
32826;SDS011;51059;42.058;27.986;2023-08-30T01:28:33;11.52;;;10.45;;
32826;SDS011;51059;42.058;27.986;2023-08-30T01:31:02;15.60;;;11.03;;
32826;SDS011;51059;42.058;27.986;2023-08-30T01:33:35;10.80;;;9.70;;
32826;SDS011;51059;42.058;27.986;2023-08-30T01:36:02;12.20;;;10.83;;
32826;SDS011;51059;42.058;27.986;2023-08-30T01:38:30;12.35;;;10.38;;
32826;SDS011;51059;42.058;27.986;2023-08-30T01:40:58;10.73;;;9.43;;
32826;SDS011;51059;42.058;27.986;2023-08-30T01:43:28;15.40;;;9.57;;
32826;SDS011;51059;42.058;27.986;2023-08-30T01:45:56;13.13;;;10.40;;
32826;SDS011;51059;42.058;27.986;2023-08-30T01:48:24;11.63;;;9.50;;
32826;SDS011;51059;42.058;27.986;2023-08-30T01:50:52;12.35;;;10.93;;
32826;SDS011;51059;42.058;27.986;2023-08-30T01:53:24;12.80;;;11.43;;
32826;SDS011;51059;42.058;27.986;2023-08-30T01:55:51;12.20;;;10.37;;
32826;SDS011;51059;42.058;27.986;2023-08-30T01:58:18;12.02;;;10.23;;
32826;SDS011;51059;42.058;27.986;2023-08-30T02:00:45;12.90;;;10.95;;
32826;SDS011;51059;42.058;27.986;2023-08-30T02:03:11;11.52;;;10.32;;
32826;SDS011;51059;42.058;27.986;2023-08-30T02:08:35;14.63;;;9.88;;
32826;SDS011;51059;42.058;27.986;2023-08-30T02:11:04;13.05;;;11.02;;
32826;SDS011;51059;42.058;27.986;2023-08-30T02:13:37;12.90;;;11.25;;
32826;SDS011;51059;42.058;27.986;2023-08-30T02:16:04;13.18;;;10.90;;
32826;SDS011;51059;42.058;27.986;2023-08-30T02:18:31;13.95;;;11.27;;
32826;SDS011;51059;42.058;27.986;2023-08-30T02:20:57;17.42;;;10.80;;
32826;SDS011;51059;42.058;27.986;2023-08-30T02:23:26;13.55;;;10.50;;
32826;SDS011;51059;42.058;27.986;2023-08-30T02:25:53;12.03;;;10.80;;
32826;SDS011;51059;42.058;27.986;2023-08-30T02:28:19;12.52;;;10.55;;
32826;SDS011;51059;42.058;27.986;2023-08-30T02:30:45;11.10;;;10.03;;
32826;SDS011;51059;42.058;27.986;2023-08-30T02:33:11;12.82;;;9.98;;
32826;SDS011;51059;42.058;27.986;2023-08-30T02:35:37;11.23;;;9.90;;
32826;SDS011;51059;42.058;27.986;2023-08-30T02:38:03;12.13;;;10.00;;
32826;SDS011;51059;42.058;27.986;2023-08-30T02:40:30;11.23;;;10.05;;
32826;SDS011;51059;42.058;27.986;2023-08-30T02:42:58;11.43;;;10.30;;
32826;SDS011;51059;42.058;27.986;2023-08-30T02:45:24;14.57;;;10.82;;
32826;SDS011;51059;42.058;27.986;2023-08-30T02:47:50;16.00;;;10.37;;
32826;SDS011;51059;42.058;27.986;2023-08-30T02:50:16;16.42;;;10.65;;
32826;SDS011;51059;42.058;27.986;2023-08-30T02:52:42;14.10;;;10.32;;
32826;SDS011;51059;42.058;27.986;2023-08-30T02:55:07;11.48;;;10.48;;
32826;SDS011;51059;42.058;27.986;2023-08-30T02:57:33;14.18;;;10.05;;
32826;SDS011;51059;42.058;27.986;2023-08-30T02:59:59;11.35;;;10.23;;
32826;SDS011;51059;42.058;27.986;2023-08-30T03:02:25;10.93;;;9.83;;
32826;SDS011;51059;42.058;27.986;2023-08-30T03:04:53;11.98;;;10.20;;
32826;SDS011;51059;42.058;27.986;2023-08-30T03:07:19;13.38;;;11.98;;
32826;SDS011;51059;42.058;27.986;2023-08-30T03:09:51;12.40;;;10.77;;
32826;SDS011;51059;42.058;27.986;2023-08-30T03:12:18;12.97;;;10.57;;
32826;SDS011;51059;42.058;27.986;2023-08-30T03:14:44;12.98;;;10.57;;
32826;SDS011;51059;42.058;27.986;2023-08-30T03:17:09;12.65;;;10.75;;
32826;SDS011;51059;42.058;27.986;2023-08-30T03:19:35;11.63;;;10.52;;
32826;SDS011;51059;42.058;27.986;2023-08-30T03:22:01;11.70;;;10.07;;
32826;SDS011;51059;42.058;27.986;2023-08-30T03:24:28;12.27;;;10.77;;
32826;SDS011;51059;42.058;27.986;2023-08-30T03:26:54;11.90;;;10.63;;
32826;SDS011;51059;42.058;27.986;2023-08-30T03:29:21;13.00;;;10.48;;
32826;SDS011;51059;42.058;27.986;2023-08-30T03:31:47;13.13;;;11.30;;
32826;SDS011;51059;42.058;27.986;2023-08-30T03:34:13;13.47;;;10.40;;
32826;SDS011;51059;42.058;27.986;2023-08-30T03:36:40;16.05;;;11.95;;
32826;SDS011;51059;42.058;27.986;2023-08-30T03:39:08;12.60;;;11.30;;
32826;SDS011;51059;42.058;27.986;2023-08-30T03:41:34;14.63;;;11.50;;
32826;SDS011;51059;42.058;27.986;2023-08-30T03:44:00;13.63;;;11.40;;
32826;SDS011;51059;42.058;27.986;2023-08-30T03:46:26;14.35;;;11.40;;
32826;SDS011;51059;42.058;27.986;2023-08-30T03:48:53;12.23;;;10.95;;
32826;SDS011;51059;42.058;27.986;2023-08-30T03:51:19;16.50;;;11.33;;
32826;SDS011;51059;42.058;27.986;2023-08-30T03:53:45;11.23;;;10.13;;
32826;SDS011;51059;42.058;27.986;2023-08-30T03:56:11;14.88;;;9.93;;
32826;SDS011;51059;42.058;27.986;2023-08-30T03:58:39;13.07;;;11.00;;
32826;SDS011;51059;42.058;27.986;2023-08-30T04:01:06;19.05;;;15.70;;
32826;SDS011;51059;42.058;27.986;2023-08-30T04:03:32;20.30;;;17.15;;
32826;SDS011;51059;42.058;27.986;2023-08-30T04:05:58;20.95;;;16.55;;
32826;SDS011;51059;42.058;27.986;2023-08-30T04:08:24;14.32;;;12.82;;
32826;SDS011;51059;42.058;27.986;2023-08-30T04:10:51;13.85;;;11.38;;
32826;SDS011;51059;42.058;27.986;2023-08-30T04:13:19;13.57;;;10.70;;
32826;SDS011;51059;42.058;27.986;2023-08-30T04:15:44;13.75;;;12.25;;
32826;SDS011;51059;42.058;27.986;2023-08-30T04:18:10;12.55;;;10.05;;
32826;SDS011;51059;42.058;27.986;2023-08-30T04:20:36;12.43;;;10.45;;
32826;SDS011;51059;42.058;27.986;2023-08-30T04:23:09;12.13;;;9.90;;
32826;SDS011;51059;42.058;27.986;2023-08-30T04:25:35;11.70;;;9.85;;
32826;SDS011;51059;42.058;27.986;2023-08-30T04:28:02;11.63;;;9.85;;
32826;SDS011;51059;42.058;27.986;2023-08-30T04:30:28;10.40;;;9.32;;
32826;SDS011;51059;42.058;27.986;2023-08-30T04:32:54;12.68;;;9.75;;
32826;SDS011;51059;42.058;27.986;2023-08-30T04:35:20;17.02;;;10.45;;
32826;SDS011;51059;42.058;27.986;2023-08-30T04:37:46;13.23;;;9.68;;
32826;SDS011;51059;42.058;27.986;2023-08-30T04:40:15;12.95;;;9.65;;
32826;SDS011;51059;42.058;27.986;2023-08-30T04:42:41;10.40;;;9.40;;
32826;SDS011;51059;42.058;27.986;2023-08-30T04:45:07;10.68;;;9.57;;
32826;SDS011;51059;42.058;27.986;2023-08-30T04:47:35;11.05;;;9.73;;
32826;SDS011;51059;42.058;27.986;2023-08-30T04:50:01;10.10;;;9.10;;
32826;SDS011;51059;42.058;27.986;2023-08-30T04:52:27;10.32;;;9.20;;
32826;SDS011;51059;42.058;27.986;2023-08-30T04:54:53;12.77;;;9.18;;
32826;SDS011;51059;42.058;27.986;2023-08-30T04:57:21;12.73;;;9.10;;
32826;SDS011;51059;42.058;27.986;2023-08-30T04:59:47;11.43;;;8.40;;
32826;SDS011;51059;42.058;27.986;2023-08-30T05:02:13;11.70;;;8.13;;
32826;SDS011;51059;42.058;27.986;2023-08-30T05:04:39;18.70;;;8.75;;
32826;SDS011;51059;42.058;27.986;2023-08-30T05:07:05;9.10;;;8.20;;
32826;SDS011;51059;42.058;27.986;2023-08-30T05:09:31;9.38;;;7.88;;
32826;SDS011;51059;42.058;27.986;2023-08-30T05:11:58;13.25;;;8.73;;
32826;SDS011;51059;42.058;27.986;2023-08-30T05:14:23;12.32;;;9.23;;
32826;SDS011;51059;42.058;27.986;2023-08-30T05:16:49;16.25;;;9.05;;
32826;SDS011;51059;42.058;27.986;2023-08-30T05:19:15;12.02;;;9.30;;
32826;SDS011;51059;42.058;27.986;2023-08-30T05:21:44;10.55;;;9.10;;
32826;SDS011;51059;42.058;27.986;2023-08-30T05:24:10;13.63;;;9.00;;
32826;SDS011;51059;42.058;27.986;2023-08-30T05:26:36;13.73;;;9.32;;
32826;SDS011;51059;42.058;27.986;2023-08-30T05:29:03;12.40;;;8.43;;
32826;SDS011;51059;42.058;27.986;2023-08-30T05:31:29;11.90;;;9.38;;
32826;SDS011;51059;42.058;27.986;2023-08-30T05:33:55;10.50;;;9.38;;
32826;SDS011;51059;42.058;27.986;2023-08-30T05:36:21;11.13;;;9.20;;
32826;SDS011;51059;42.058;27.986;2023-08-30T05:38:47;16.15;;;9.32;;
32826;SDS011;51059;42.058;27.986;2023-08-30T05:41:13;31.02;;;9.75;;
32826;SDS011;51059;42.058;27.986;2023-08-30T05:43:39;18.13;;;9.50;;
32826;SDS011;51059;42.058;27.986;2023-08-30T05:46:04;20.00;;;9.73;;
32826;SDS011;51059;42.058;27.986;2023-08-30T05:48:30;19.00;;;10.88;;
32826;SDS011;51059;42.058;27.986;2023-08-30T05:50:58;15.00;;;10.88;;
32826;SDS011;51059;42.058;27.986;2023-08-30T05:53:24;16.52;;;9.77;;
32826;SDS011;51059;42.058;27.986;2023-08-30T05:55:50;15.40;;;9.85;;
32826;SDS011;51059;42.058;27.986;2023-08-30T05:58:16;18.40;;;10.55;;
32826;SDS011;51059;42.058;27.986;2023-08-30T06:00:43;12.90;;;10.18;;
32826;SDS011;51059;42.058;27.986;2023-08-30T06:03:09;17.33;;;10.48;;
32826;SDS011;51059;42.058;27.986;2023-08-30T06:05:36;17.35;;;10.00;;
32826;SDS011;51059;42.058;27.986;2023-08-30T06:08:03;14.05;;;10.50;;
32826;SDS011;51059;42.058;27.986;2023-08-30T06:10:30;15.07;;;9.98;;
32826;SDS011;51059;42.058;27.986;2023-08-30T06:12:56;15.52;;;10.57;;
32826;SDS011;51059;42.058;27.986;2023-08-30T06:15:22;16.60;;;10.25;;
32826;SDS011;51059;42.058;27.986;2023-08-30T06:17:48;14.48;;;9.10;;
32826;SDS011;51059;42.058;27.986;2023-08-30T06:20:14;14.10;;;10.30;;
32826;SDS011;51059;42.058;27.986;2023-08-30T06:22:40;18.23;;;9.77;;
32826;SDS011;51059;42.058;27.986;2023-08-30T06:25:10;19.88;;;9.32;;
32826;SDS011;51059;42.058;27.986;2023-08-30T06:27:40;12.52;;;9.75;;
32826;SDS011;51059;42.058;27.986;2023-08-30T06:30:08;15.45;;;9.50;;
32826;SDS011;51059;42.058;27.986;2023-08-30T06:32:36;15.43;;;8.88;;
32826;SDS011;51059;42.058;27.986;2023-08-30T06:35:01;14.55;;;8.45;;
32826;SDS011;51059;42.058;27.986;2023-08-30T06:37:29;14.43;;;7.65;;
32826;SDS011;51059;42.058;27.986;2023-08-30T06:39:55;14.05;;;8.27;;
32826;SDS011;51059;42.058;27.986;2023-08-30T06:42:21;10.20;;;7.95;;
32826;SDS011;51059;42.058;27.986;2023-08-30T06:44:47;13.27;;;8.10;;
32826;SDS011;51059;42.058;27.986;2023-08-30T06:47:13;10.80;;;7.38;;
32826;SDS011;51059;42.058;27.986;2023-08-30T06:49:38;15.38;;;7.72;;
32826;SDS011;51059;42.058;27.986;2023-08-30T06:52:04;16.70;;;7.40;;
32826;SDS011;51059;42.058;27.986;2023-08-30T06:54:32;9.98;;;7.32;;
32826;SDS011;51059;42.058;27.986;2023-08-30T06:56:59;14.35;;;7.50;;
32826;SDS011;51059;42.058;27.986;2023-08-30T06:59:26;14.70;;;7.35;;
32826;SDS011;51059;42.058;27.986;2023-08-30T07:01:52;9.93;;;7.22;;
32826;SDS011;51059;42.058;27.986;2023-08-30T07:04:18;11.77;;;7.43;;
32826;SDS011;51059;42.058;27.986;2023-08-30T07:06:44;12.68;;;7.68;;
32826;SDS011;51059;42.058;27.986;2023-08-30T07:09:10;9.65;;;6.90;;
32826;SDS011;51059;42.058;27.986;2023-08-30T07:11:37;12.05;;;7.30;;
32826;SDS011;51059;42.058;27.986;2023-08-30T07:14:03;11.82;;;7.40;;
32826;SDS011;51059;42.058;27.986;2023-08-30T07:16:30;11.70;;;7.13;;
32826;SDS011;51059;42.058;27.986;2023-08-30T07:18:57;13.05;;;7.40;;
32826;SDS011;51059;42.058;27.986;2023-08-30T07:21:23;13.02;;;7.57;;
32826;SDS011;51059;42.058;27.986;2023-08-30T07:23:50;13.40;;;7.28;;
32826;SDS011;51059;42.058;27.986;2023-08-30T07:26:16;8.60;;;6.78;;
32826;SDS011;51059;42.058;27.986;2023-08-30T07:28:43;13.25;;;7.30;;
32826;SDS011;51059;42.058;27.986;2023-08-30T07:31:09;12.35;;;7.00;;
32826;SDS011;51059;42.058;27.986;2023-08-30T07:33:39;9.85;;;6.90;;
32826;SDS011;51059;42.058;27.986;2023-08-30T07:36:05;8.02;;;7.32;;
32826;SDS011;51059;42.058;27.986;2023-08-30T07:38:31;12.25;;;7.30;;
32826;SDS011;51059;42.058;27.986;2023-08-30T07:40:57;9.90;;;7.22;;
32826;SDS011;51059;42.058;27.986;2023-08-30T07:43:23;14.48;;;7.28;;
32826;SDS011;51059;42.058;27.986;2023-08-30T07:45:49;11.02;;;7.03;;
32826;SDS011;51059;42.058;27.986;2023-08-30T07:48:15;14.05;;;7.15;;
32826;SDS011;51059;42.058;27.986;2023-08-30T07:50:40;10.00;;;6.97;;
32826;SDS011;51059;42.058;27.986;2023-08-30T07:53:06;9.70;;;6.85;;
32826;SDS011;51059;42.058;27.986;2023-08-30T07:55:32;10.98;;;7.43;;
32826;SDS011;51059;42.058;27.986;2023-08-30T07:57:58;8.48;;;6.85;;
32826;SDS011;51059;42.058;27.986;2023-08-30T08:00:24;11.00;;;7.20;;
32826;SDS011;51059;42.058;27.986;2023-08-30T08:02:50;13.20;;;7.53;;
32826;SDS011;51059;42.058;27.986;2023-08-30T08:05:16;10.35;;;7.47;;
32826;SDS011;51059;42.058;27.986;2023-08-30T08:07:42;9.43;;;6.72;;
32826;SDS011;51059;42.058;27.986;2023-08-30T08:10:08;12.68;;;7.22;;
32826;SDS011;51059;42.058;27.986;2023-08-30T08:12:35;13.10;;;7.22;;
32826;SDS011;51059;42.058;27.986;2023-08-30T08:15:03;10.48;;;7.13;;
32826;SDS011;51059;42.058;27.986;2023-08-30T08:17:36;12.02;;;7.30;;
32826;SDS011;51059;42.058;27.986;2023-08-30T08:20:04;11.95;;;7.80;;
32826;SDS011;51059;42.058;27.986;2023-08-30T08:22:31;13.02;;;6.90;;
32826;SDS011;51059;42.058;27.986;2023-08-30T08:24:57;25.83;;;8.10;;
32826;SDS011;51059;42.058;27.986;2023-08-30T08:27:24;12.77;;;7.50;;
32826;SDS011;51059;42.058;27.986;2023-08-30T08:29:50;10.85;;;7.32;;
32826;SDS011;51059;42.058;27.986;2023-08-30T08:32:16;16.25;;;7.45;;
32826;SDS011;51059;42.058;27.986;2023-08-30T08:34:42;12.20;;;7.25;;
32826;SDS011;51059;42.058;27.986;2023-08-30T08:37:08;15.18;;;7.55;;
32826;SDS011;51059;42.058;27.986;2023-08-30T08:39:34;10.93;;;7.13;;
32826;SDS011;51059;42.058;27.986;2023-08-30T08:42:01;13.23;;;7.55;;
32826;SDS011;51059;42.058;27.986;2023-08-30T08:44:31;17.85;;;8.27;;
32826;SDS011;51059;42.058;27.986;2023-08-30T08:46:57;12.63;;;7.80;;
32826;SDS011;51059;42.058;27.986;2023-08-30T08:49:25;12.63;;;7.93;;
32826;SDS011;51059;42.058;27.986;2023-08-30T08:51:58;12.48;;;8.82;;
32826;SDS011;51059;42.058;27.986;2023-08-30T08:54:30;12.77;;;8.07;;
32826;SDS011;51059;42.058;27.986;2023-08-30T08:56:56;13.80;;;9.27;;
32826;SDS011;51059;42.058;27.986;2023-08-30T08:59:22;11.95;;;7.72;;
32826;SDS011;51059;42.058;27.986;2023-08-30T09:01:50;49.28;;;10.93;;
32826;SDS011;51059;42.058;27.986;2023-08-30T09:04:16;15.45;;;7.50;;
32826;SDS011;51059;42.058;27.986;2023-08-30T09:06:43;14.98;;;7.80;;
32826;SDS011;51059;42.058;27.986;2023-08-30T09:09:09;13.82;;;7.35;;
32826;SDS011;51059;42.058;27.986;2023-08-30T09:11:36;14.30;;;8.20;;
32826;SDS011;51059;42.058;27.986;2023-08-30T09:14:02;12.00;;;8.07;;
32826;SDS011;51059;42.058;27.986;2023-08-30T09:16:28;16.60;;;7.57;;
32826;SDS011;51059;42.058;27.986;2023-08-30T09:18:58;13.52;;;7.88;;
32826;SDS011;51059;42.058;27.986;2023-08-30T09:21:24;9.07;;;7.72;;
32826;SDS011;51059;42.058;27.986;2023-08-30T09:24:06;11.00;;;7.78;;
32826;SDS011;51059;42.058;27.986;2023-08-30T09:26:33;14.15;;;8.40;;
32826;SDS011;51059;42.058;27.986;2023-08-30T09:29:08;8.50;;;7.57;;
32826;SDS011;51059;42.058;27.986;2023-08-30T09:31:37;18.20;;;8.50;;
32826;SDS011;51059;42.058;27.986;2023-08-30T09:34:06;12.60;;;8.45;;
32826;SDS011;51059;42.058;27.986;2023-08-30T09:36:41;12.90;;;8.10;;
32826;SDS011;51059;42.058;27.986;2023-08-30T09:39:14;13.43;;;8.50;;
32826;SDS011;51059;42.058;27.986;2023-08-30T09:41:47;15.63;;;8.43;;
32826;SDS011;51059;42.058;27.986;2023-08-30T09:44:15;13.77;;;8.63;;
32826;SDS011;51059;42.058;27.986;2023-08-30T09:46:48;10.88;;;8.27;;
32826;SDS011;51059;42.058;27.986;2023-08-30T09:49:17;11.32;;;8.30;;
32826;SDS011;51059;42.058;27.986;2023-08-30T09:51:44;13.77;;;8.93;;
32826;SDS011;51059;42.058;27.986;2023-08-30T09:54:15;19.83;;;9.32;;
32826;SDS011;51059;42.058;27.986;2023-08-30T09:56:43;15.68;;;8.43;;
32826;SDS011;51059;42.058;27.986;2023-08-30T09:59:11;12.32;;;8.30;;
32826;SDS011;51059;42.058;27.986;2023-08-30T10:01:40;15.35;;;9.10;;
32826;SDS011;51059;42.058;27.986;2023-08-30T10:04:08;17.92;;;9.13;;
32826;SDS011;51059;42.058;27.986;2023-08-30T10:06:37;10.52;;;8.40;;
32826;SDS011;51059;42.058;27.986;2023-08-30T10:09:04;12.43;;;8.57;;
32826;SDS011;51059;42.058;27.986;2023-08-30T10:11:33;11.73;;;8.75;;
32826;SDS011;51059;42.058;27.986;2023-08-30T10:14:04;13.38;;;8.32;;
32826;SDS011;51059;42.058;27.986;2023-08-30T10:16:53;13.23;;;8.52;;
32826;SDS011;51059;42.058;27.986;2023-08-30T10:19:26;17.45;;;9.05;;
32826;SDS011;51059;42.058;27.986;2023-08-30T10:22:05;12.73;;;8.75;;
32826;SDS011;51059;42.058;27.986;2023-08-30T10:24:37;16.17;;;9.10;;
32826;SDS011;51059;42.058;27.986;2023-08-30T10:27:04;16.40;;;8.98;;
32826;SDS011;51059;42.058;27.986;2023-08-30T10:29:32;10.00;;;9.00;;
32826;SDS011;51059;42.058;27.986;2023-08-30T10:32:06;14.15;;;8.93;;
32826;SDS011;51059;42.058;27.986;2023-08-30T10:34:33;12.07;;;9.15;;
32826;SDS011;51059;42.058;27.986;2023-08-30T10:37:00;20.48;;;9.27;;
32826;SDS011;51059;42.058;27.986;2023-08-30T10:39:37;20.92;;;9.27;;
32826;SDS011;51059;42.058;27.986;2023-08-30T10:42:11;13.00;;;8.95;;
32826;SDS011;51059;42.058;27.986;2023-08-30T10:44:51;14.63;;;9.57;;
32826;SDS011;51059;42.058;27.986;2023-08-30T10:47:24;14.10;;;9.48;;
32826;SDS011;51059;42.058;27.986;2023-08-30T10:49:56;13.93;;;9.55;;
32826;SDS011;51059;42.058;27.986;2023-08-30T10:52:24;15.25;;;9.63;;
32826;SDS011;51059;42.058;27.986;2023-08-30T10:54:50;17.63;;;9.73;;
32826;SDS011;51059;42.058;27.986;2023-08-30T10:57:21;18.92;;;10.57;;
32826;SDS011;51059;42.058;27.986;2023-08-30T11:02:33;18.17;;;10.70;;
32826;SDS011;51059;42.058;27.986;2023-08-30T11:05:00;18.35;;;9.70;;
32826;SDS011;51059;42.058;27.986;2023-08-30T11:07:26;16.42;;;10.18;;
32826;SDS011;51059;42.058;27.986;2023-08-30T11:09:52;15.75;;;9.95;;
32826;SDS011;51059;42.058;27.986;2023-08-30T11:12:19;15.30;;;9.60;;
32826;SDS011;51059;42.058;27.986;2023-08-30T11:14:47;17.65;;;9.85;;
32826;SDS011;51059;42.058;27.986;2023-08-30T11:17:16;18.20;;;10.30;;
32826;SDS011;51059;42.058;27.986;2023-08-30T11:19:42;13.95;;;9.77;;
32826;SDS011;51059;42.058;27.986;2023-08-30T11:22:08;45.20;;;11.38;;
32826;SDS011;51059;42.058;27.986;2023-08-30T11:24:34;16.27;;;10.00;;
32826;SDS011;51059;42.058;27.986;2023-08-30T11:27:00;14.63;;;10.02;;
32826;SDS011;51059;42.058;27.986;2023-08-30T11:29:27;12.85;;;10.30;;
32826;SDS011;51059;42.058;27.986;2023-08-30T11:31:53;22.23;;;10.73;;
32826;SDS011;51059;42.058;27.986;2023-08-30T11:34:22;15.35;;;10.48;;
32826;SDS011;51059;42.058;27.986;2023-08-30T11:36:48;24.30;;;11.02;;
32826;SDS011;51059;42.058;27.986;2023-08-30T11:39:15;12.43;;;10.63;;
32826;SDS011;51059;42.058;27.986;2023-08-30T11:41:42;13.02;;;11.02;;
32826;SDS011;51059;42.058;27.986;2023-08-30T11:44:10;15.20;;;10.35;;
32826;SDS011;51059;42.058;27.986;2023-08-30T11:46:36;13.20;;;10.60;;
32826;SDS011;51059;42.058;27.986;2023-08-30T11:49:02;16.85;;;10.50;;
32826;SDS011;51059;42.058;27.986;2023-08-30T11:51:29;15.65;;;10.90;;
32826;SDS011;51059;42.058;27.986;2023-08-30T11:53:55;21.35;;;10.45;;
32826;SDS011;51059;42.058;27.986;2023-08-30T11:56:22;18.25;;;11.25;;
32826;SDS011;51059;42.058;27.986;2023-08-30T11:58:49;24.80;;;11.20;;
32826;SDS011;51059;42.058;27.986;2023-08-30T12:01:17;17.88;;;9.88;;
32826;SDS011;51059;42.058;27.986;2023-08-30T12:03:44;14.38;;;11.57;;
32826;SDS011;51059;42.058;27.986;2023-08-30T12:06:18;16.05;;;11.40;;
32826;SDS011;51059;42.058;27.986;2023-08-30T12:08:46;19.55;;;12.25;;
32826;SDS011;51059;42.058;27.986;2023-08-30T12:11:18;19.17;;;11.40;;
32826;SDS011;51059;42.058;27.986;2023-08-30T12:13:45;22.13;;;11.80;;
32826;SDS011;51059;42.058;27.986;2023-08-30T12:16:16;22.52;;;12.05;;
32826;SDS011;51059;42.058;27.986;2023-08-30T12:18:45;19.83;;;11.85;;
32826;SDS011;51059;42.058;27.986;2023-08-30T12:21:10;16.10;;;11.50;;
32826;SDS011;51059;42.058;27.986;2023-08-30T12:23:38;18.27;;;11.40;;
32826;SDS011;51059;42.058;27.986;2023-08-30T12:26:14;19.63;;;11.60;;
32826;SDS011;51059;42.058;27.986;2023-08-30T12:28:42;27.52;;;12.05;;
32826;SDS011;51059;42.058;27.986;2023-08-30T12:31:09;26.13;;;11.68;;
32826;SDS011;51059;42.058;27.986;2023-08-30T12:33:36;18.15;;;11.88;;
32826;SDS011;51059;42.058;27.986;2023-08-30T12:36:03;17.58;;;12.10;;
32826;SDS011;51059;42.058;27.986;2023-08-30T12:38:29;20.30;;;12.23;;
32826;SDS011;51059;42.058;27.986;2023-08-30T12:40:56;18.20;;;11.90;;
32826;SDS011;51059;42.058;27.986;2023-08-30T12:43:24;22.55;;;11.63;;
32826;SDS011;51059;42.058;27.986;2023-08-30T12:45:50;20.95;;;12.27;;
32826;SDS011;51059;42.058;27.986;2023-08-30T12:48:17;16.77;;;11.95;;
32826;SDS011;51059;42.058;27.986;2023-08-30T12:50:44;15.70;;;11.40;;
32826;SDS011;51059;42.058;27.986;2023-08-30T12:53:12;13.70;;;12.07;;
32826;SDS011;51059;42.058;27.986;2023-08-30T12:55:37;18.88;;;11.55;;
32826;SDS011;51059;42.058;27.986;2023-08-30T12:58:06;17.05;;;12.38;;
32826;SDS011;51059;42.058;27.986;2023-08-30T13:00:35;22.85;;;12.77;;
32826;SDS011;51059;42.058;27.986;2023-08-30T13:03:01;20.83;;;12.30;;
32826;SDS011;51059;42.058;27.986;2023-08-30T13:05:28;21.13;;;13.43;;
32826;SDS011;51059;42.058;27.986;2023-08-30T13:07:57;18.40;;;13.80;;
32826;SDS011;51059;42.058;27.986;2023-08-30T13:10:24;21.23;;;13.38;;
32826;SDS011;51059;42.058;27.986;2023-08-30T13:12:49;21.58;;;13.25;;
32826;SDS011;51059;42.058;27.986;2023-08-30T13:15:15;24.42;;;13.48;;
32826;SDS011;51059;42.058;27.986;2023-08-30T13:17:41;18.58;;;13.93;;
32826;SDS011;51059;42.058;27.986;2023-08-30T13:20:07;17.17;;;13.18;;
32826;SDS011;51059;42.058;27.986;2023-08-30T13:22:33;22.40;;;14.13;;
32826;SDS011;51059;42.058;27.986;2023-08-30T13:24:59;21.23;;;13.32;;
32826;SDS011;51059;42.058;27.986;2023-08-30T13:27:25;22.17;;;13.70;;
32826;SDS011;51059;42.058;27.986;2023-08-30T13:29:51;19.27;;;13.73;;
32826;SDS011;51059;42.058;27.986;2023-08-30T13:32:17;27.80;;;13.43;;
32826;SDS011;51059;42.058;27.986;2023-08-30T13:34:43;22.23;;;14.27;;
32826;SDS011;51059;42.058;27.986;2023-08-30T13:37:12;18.30;;;14.07;;
32826;SDS011;51059;42.058;27.986;2023-08-30T13:39:39;24.88;;;14.65;;
32826;SDS011;51059;42.058;27.986;2023-08-30T13:42:05;19.95;;;13.82;;
32826;SDS011;51059;42.058;27.986;2023-08-30T13:44:31;21.20;;;14.52;;
32826;SDS011;51059;42.058;27.986;2023-08-30T13:46:57;20.25;;;13.48;;
32826;SDS011;51059;42.058;27.986;2023-08-30T13:49:23;25.10;;;14.52;;
32826;SDS011;51059;42.058;27.986;2023-08-30T13:51:50;18.17;;;13.68;;
32826;SDS011;51059;42.058;27.986;2023-08-30T13:54:18;18.90;;;14.63;;
32826;SDS011;51059;42.058;27.986;2023-08-30T13:56:44;23.40;;;14.02;;
32826;SDS011;51059;42.058;27.986;2023-08-30T13:59:10;18.50;;;13.57;;
32826;SDS011;51059;42.058;27.986;2023-08-30T14:01:36;20.23;;;13.55;;
32826;SDS011;51059;42.058;27.986;2023-08-30T14:04:02;20.75;;;14.57;;
32826;SDS011;51059;42.058;27.986;2023-08-30T14:06:30;20.58;;;13.85;;
32826;SDS011;51059;42.058;27.986;2023-08-30T14:08:58;24.15;;;14.02;;
32826;SDS011;51059;42.058;27.986;2023-08-30T14:11:24;21.25;;;14.45;;
32826;SDS011;51059;42.058;27.986;2023-08-30T14:13:49;20.85;;;14.43;;
32826;SDS011;51059;42.058;27.986;2023-08-30T14:16:15;21.05;;;14.38;;
32826;SDS011;51059;42.058;27.986;2023-08-30T14:18:42;23.80;;;13.50;;
32826;SDS011;51059;42.058;27.986;2023-08-30T14:21:08;17.35;;;13.48;;
32826;SDS011;51059;42.058;27.986;2023-08-30T14:23:34;21.88;;;13.35;;
32826;SDS011;51059;42.058;27.986;2023-08-30T14:26:05;17.08;;;12.98;;
32826;SDS011;51059;42.058;27.986;2023-08-30T14:28:36;19.88;;;13.32;;
32826;SDS011;51059;42.058;27.986;2023-08-30T14:31:03;23.55;;;13.80;;